sensor_id;sensor_type;location;lat;lon;timestamp;temperature;humidity
18317;DHT22;9284;52.298;21.164;2022-07-22T03:17:03;17.00;1.00
18317;DHT22;9284;52.298;21.164;2022-07-22T03:19:32;17.10;1.00
18317;DHT22;9284;52.298;21.164;2022-07-22T03:22:01;17.00;1.00
18317;DHT22;9284;52.298;21.164;2022-07-22T03:24:29;17.10;1.00
18317;DHT22;9284;52.298;21.164;2022-07-22T03:26:59;17.10;1.00
18317;DHT22;9284;52.298;21.164;2022-07-22T03:29:29;17.20;1.00
18317;DHT22;9284;52.298;21.164;2022-07-22T03:31:58;17.20;1.00
18317;DHT22;9284;52.298;21.164;2022-07-22T03:34:39;17.20;1.00
18317;DHT22;9284;52.298;21.164;2022-07-22T03:37:07;17.30;1.00
18317;DHT22;9284;52.298;21.164;2022-07-22T03:39:36;17.30;1.00
18317;DHT22;9284;52.298;21.164;2022-07-22T03:42:04;17.40;1.00
18317;DHT22;9284;52.298;21.164;2022-07-22T03:44:39;17.40;1.00
18317;DHT22;9284;52.298;21.164;2022-07-22T03:47:07;17.40;1.00
18317;DHT22;9284;52.298;21.164;2022-07-22T03:49:36;17.50;1.00
18317;DHT22;9284;52.298;21.164;2022-07-22T03:52:07;17.40;1.00
18317;DHT22;9284;52.298;21.164;2022-07-22T03:54:35;17.50;1.00
18317;DHT22;9284;52.298;21.164;2022-07-22T03:57:03;17.60;1.00
18317;DHT22;9284;52.298;21.164;2022-07-22T03:59:31;17.70;1.00
18317;DHT22;9284;52.298;21.164;2022-07-22T04:02:02;17.70;1.00
18317;DHT22;9284;52.298;21.164;2022-07-22T04:04:31;17.60;1.00
18317;DHT22;9284;52.298;21.164;2022-07-22T04:06:59;17.90;1.00
18317;DHT22;9284;52.298;21.164;2022-07-22T04:09:35;17.80;1.00
18317;DHT22;9284;52.298;21.164;2022-07-22T04:12:03;17.90;1.00
18317;DHT22;9284;52.298;21.164;2022-07-22T04:14:41;17.90;1.00
18317;DHT22;9284;52.298;21.164;2022-07-22T04:17:09;17.90;1.00
18317;DHT22;9284;52.298;21.164;2022-07-22T04:19:41;17.90;1.00
18317;DHT22;9284;52.298;21.164;2022-07-22T04:22:24;18.10;1.00
18317;DHT22;9284;52.298;21.164;2022-07-22T04:24:55;18.20;1.00
18317;DHT22;9284;52.298;21.164;2022-07-22T04:27:24;18.30;1.00
18317;DHT22;9284;52.298;21.164;2022-07-22T04:29:52;18.30;1.00
18317;DHT22;9284;52.298;21.164;2022-07-22T04:32:20;18.40;1.00
18317;DHT22;9284;52.298;21.164;2022-07-22T04:34:49;18.50;1.00
18317;DHT22;9284;52.298;21.164;2022-07-22T04:37:17;18.50;99.90
18317;DHT22;9284;52.298;21.164;2022-07-22T04:39:46;18.60;99.90
18317;DHT22;9284;52.298;21.164;2022-07-22T04:42:16;18.50;99.90
18317;DHT22;9284;52.298;21.164;2022-07-22T04:44:45;18.80;99.90
18317;DHT22;9284;52.298;21.164;2022-07-22T04:47:14;18.80;99.90
18317;DHT22;9284;52.298;21.164;2022-07-22T04:49:43;18.90;99.90
18317;DHT22;9284;52.298;21.164;2022-07-22T04:52:12;19.00;99.90
18317;DHT22;9284;52.298;21.164;2022-07-22T04:54:46;19.10;71.60
18317;DHT22;9284;52.298;21.164;2022-07-22T04:57:16;19.10;11.90
18317;DHT22;9284;52.298;21.164;2022-07-22T04:59:45;19.20;1.30
18317;DHT22;9284;52.298;21.164;2022-07-22T05:02:13;19.40;1.00
18317;DHT22;9284;52.298;21.164;2022-07-22T05:04:42;19.40;1.00
18317;DHT22;9284;52.298;21.164;2022-07-22T05:07:10;19.60;1.00
18317;DHT22;9284;52.298;21.164;2022-07-22T05:09:38;19.70;1.00
18317;DHT22;9284;52.298;21.164;2022-07-22T05:12:10;19.90;1.00
18317;DHT22;9284;52.298;21.164;2022-07-22T05:14:40;20.00;1.00
18317;DHT22;9284;52.298;21.164;2022-07-22T05:17:10;20.10;1.00
18317;DHT22;9284;52.298;21.164;2022-07-22T05:19:56;20.20;99.90
18317;DHT22;9284;52.298;21.164;2022-07-22T05:22:24;20.30;99.90
18317;DHT22;9284;52.298;21.164;2022-07-22T05:24:53;20.40;99.90
18317;DHT22;9284;52.298;21.164;2022-07-22T05:27:22;20.50;99.90
18317;DHT22;9284;52.298;21.164;2022-07-22T05:29:51;20.70;99.90
18317;DHT22;9284;52.298;21.164;2022-07-22T05:32:20;20.80;28.70
18317;DHT22;9284;52.298;21.164;2022-07-22T05:34:52;20.90;52.90
18317;DHT22;9284;52.298;21.164;2022-07-22T05:37:20;21.00;1.00
18317;DHT22;9284;52.298;21.164;2022-07-22T05:39:48;21.20;99.90
18317;DHT22;9284;52.298;21.164;2022-07-22T05:42:16;21.40;99.90
18317;DHT22;9284;52.298;21.164;2022-07-22T05:44:45;21.60;1.00
18317;DHT22;9284;52.298;21.164;2022-07-22T05:47:16;21.80;32.50
18317;DHT22;9284;52.298;21.164;2022-07-22T05:49:44;22.10;1.00
18317;DHT22;9284;52.298;21.164;2022-07-22T05:52:13;22.40;1.00
18317;DHT22;9284;52.298;21.164;2022-07-22T05:54:42;22.60;1.00
18317;DHT22;9284;52.298;21.164;2022-07-22T05:57:11;22.90;1.00
18317;DHT22;9284;52.298;21.164;2022-07-22T05:59:39;23.20;99.90
18317;DHT22;9284;52.298;21.164;2022-07-22T06:02:08;23.40;99.90
18317;DHT22;9284;52.298;21.164;2022-07-22T06:04:45;23.60;1.00
18317;DHT22;9284;52.298;21.164;2022-07-22T06:07:16;23.80;1.00
18317;DHT22;9284;52.298;21.164;2022-07-22T06:09:48;24.00;1.00
18317;DHT22;9284;52.298;21.164;2022-07-22T06:12:17;24.20;1.00
18317;DHT22;9284;52.298;21.164;2022-07-22T06:14:45;24.40;99.90
18317;DHT22;9284;52.298;21.164;2022-07-22T06:17:14;24.70;1.00
18317;DHT22;9284;52.298;21.164;2022-07-22T06:19:42;25.00;1.00
18317;DHT22;9284;52.298;21.164;2022-07-22T06:22:11;25.40;1.00
18317;DHT22;9284;52.298;21.164;2022-07-22T06:24:40;26.20;99.90
18317;DHT22;9284;52.298;21.164;2022-07-22T06:27:08;27.10;99.90
18317;DHT22;9284;52.298;21.164;2022-07-22T06:29:36;28.30;1.00
18317;DHT22;9284;52.298;21.164;2022-07-22T06:32:05;29.00;1.00
18317;DHT22;9284;52.298;21.164;2022-07-22T06:34:34;29.90;1.00
18317;DHT22;9284;52.298;21.164;2022-07-22T06:37:04;30.30;1.00
18317;DHT22;9284;52.298;21.164;2022-07-22T06:39:37;30.80;1.00
18317;DHT22;9284;52.298;21.164;2022-07-22T06:42:16;30.80;1.00
18317;DHT22;9284;52.298;21.164;2022-07-22T06:45:04;31.20;1.00
18317;DHT22;9284;52.298;21.164;2022-07-22T06:47:59;31.30;1.00
18317;DHT22;9284;52.298;21.164;2022-07-22T06:50:29;31.40;1.00
18317;DHT22;9284;52.298;21.164;2022-07-22T06:52:59;31.50;1.00
18317;DHT22;9284;52.298;21.164;2022-07-22T06:55:30;32.00;1.00
18317;DHT22;9284;52.298;21.164;2022-07-22T06:58:04;32.30;1.00
18317;DHT22;9284;52.298;21.164;2022-07-22T07:00:33;32.30;1.00
18317;DHT22;9284;52.298;21.164;2022-07-22T07:03:19;32.20;1.00
18317;DHT22;9284;52.298;21.164;2022-07-22T07:06:07;32.60;1.00
18317;DHT22;9284;52.298;21.164;2022-07-22T07:08:54;32.10;1.00
18317;DHT22;9284;52.298;21.164;2022-07-22T07:11:27;32.20;1.00
18317;DHT22;9284;52.298;21.164;2022-07-22T07:13:56;32.40;1.00
18317;DHT22;9284;52.298;21.164;2022-07-22T07:16:24;33.00;1.00
18317;DHT22;9284;52.298;21.164;2022-07-22T07:18:53;33.00;1.00
18317;DHT22;9284;52.298;21.164;2022-07-22T07:21:21;32.80;1.00
18317;DHT22;9284;52.298;21.164;2022-07-22T07:23:50;33.80;1.00
18317;DHT22;9284;52.298;21.164;2022-07-22T07:26:19;34.00;1.00
18317;DHT22;9284;52.298;21.164;2022-07-22T07:28:49;34.40;1.00
18317;DHT22;9284;52.298;21.164;2022-07-22T07:31:27;34.10;1.00
18317;DHT22;9284;52.298;21.164;2022-07-22T07:33:58;33.60;1.00
18317;DHT22;9284;52.298;21.164;2022-07-22T07:36:26;33.80;1.00
18317;DHT22;9284;52.298;21.164;2022-07-22T07:38:55;34.20;1.00
18317;DHT22;9284;52.298;21.164;2022-07-22T07:41:24;34.70;1.00
18317;DHT22;9284;52.298;21.164;2022-07-22T07:43:54;34.90;1.00
18317;DHT22;9284;52.298;21.164;2022-07-22T07:46:23;34.60;1.00
18317;DHT22;9284;52.298;21.164;2022-07-22T07:48:51;34.50;1.00
18317;DHT22;9284;52.298;21.164;2022-07-22T07:51:21;35.10;1.00
18317;DHT22;9284;52.298;21.164;2022-07-22T07:53:49;35.10;1.00
18317;DHT22;9284;52.298;21.164;2022-07-22T07:56:18;34.80;1.00
18317;DHT22;9284;52.298;21.164;2022-07-22T07:58:46;34.90;1.00
18317;DHT22;9284;52.298;21.164;2022-07-22T08:01:36;34.60;1.00
18317;DHT22;9284;52.298;21.164;2022-07-22T08:04:25;34.30;1.00
18317;DHT22;9284;52.298;21.164;2022-07-22T08:07:11;34.90;1.00
18317;DHT22;9284;52.298;21.164;2022-07-22T08:09:42;35.50;1.00
18317;DHT22;9284;52.298;21.164;2022-07-22T08:12:29;35.70;1.00
18317;DHT22;9284;52.298;21.164;2022-07-22T08:15:33;35.60;1.00
18317;DHT22;9284;52.298;21.164;2022-07-22T08:18:08;35.80;1.00
18317;DHT22;9284;52.298;21.164;2022-07-22T08:20:36;35.60;1.00
18317;DHT22;9284;52.298;21.164;2022-07-22T08:23:05;35.50;1.00
18317;DHT22;9284;52.298;21.164;2022-07-22T08:25:33;35.70;1.00
18317;DHT22;9284;52.298;21.164;2022-07-22T08:28:02;36.00;1.00
18317;DHT22;9284;52.298;21.164;2022-07-22T08:30:30;36.10;1.00
18317;DHT22;9284;52.298;21.164;2022-07-22T08:32:59;36.60;1.00
18317;DHT22;9284;52.298;21.164;2022-07-22T08:35:28;36.80;1.00
18317;DHT22;9284;52.298;21.164;2022-07-22T08:37:57;36.70;1.00
18317;DHT22;9284;52.298;21.164;2022-07-22T08:40:25;36.70;1.00
18317;DHT22;9284;52.298;21.164;2022-07-22T08:42:56;37.10;1.00
18317;DHT22;9284;52.298;21.164;2022-07-22T08:45:24;36.90;1.00
18317;DHT22;9284;52.298;21.164;2022-07-22T08:47:54;37.30;1.00
18317;DHT22;9284;52.298;21.164;2022-07-22T08:50:46;37.10;1.00
18317;DHT22;9284;52.298;21.164;2022-07-22T08:53:23;37.00;1.00
18317;DHT22;9284;52.298;21.164;2022-07-22T08:55:55;36.50;1.00
18317;DHT22;9284;52.298;21.164;2022-07-22T08:58:26;36.90;1.00
18317;DHT22;9284;52.298;21.164;2022-07-22T09:01:06;37.00;1.00
18317;DHT22;9284;52.298;21.164;2022-07-22T09:03:45;36.80;1.00
18317;DHT22;9284;52.298;21.164;2022-07-22T09:06:15;37.10;1.00
18317;DHT22;9284;52.298;21.164;2022-07-22T09:08:55;36.40;1.00
18317;DHT22;9284;52.298;21.164;2022-07-22T09:11:42;36.90;1.00
18317;DHT22;9284;52.298;21.164;2022-07-22T09:14:13;36.70;1.00
18317;DHT22;9284;52.298;21.164;2022-07-22T09:17:33;36.10;1.00
18317;DHT22;9284;52.298;21.164;2022-07-22T09:20:32;36.40;1.00
18317;DHT22;9284;52.298;21.164;2022-07-22T09:23:39;37.10;1.00
18317;DHT22;9284;52.298;21.164;2022-07-22T09:26:08;36.80;1.00
18317;DHT22;9284;52.298;21.164;2022-07-22T09:29:08;36.70;1.00
18317;DHT22;9284;52.298;21.164;2022-07-22T09:31:54;36.20;1.00
18317;DHT22;9284;52.298;21.164;2022-07-22T09:35:02;36.40;1.00
18317;DHT22;9284;52.298;21.164;2022-07-22T09:37:51;36.30;1.00
18317;DHT22;9284;52.298;21.164;2022-07-22T09:40:23;36.30;1.00
18317;DHT22;9284;52.298;21.164;2022-07-22T09:42:54;36.20;1.00
18317;DHT22;9284;52.298;21.164;2022-07-22T09:45:24;36.00;1.00
18317;DHT22;9284;52.298;21.164;2022-07-22T09:47:56;36.00;1.00
18317;DHT22;9284;52.298;21.164;2022-07-22T09:50:46;35.70;1.00
18317;DHT22;9284;52.298;21.164;2022-07-22T09:53:41;35.80;1.00
18317;DHT22;9284;52.298;21.164;2022-07-22T09:56:14;35.70;1.00
18317;DHT22;9284;52.298;21.164;2022-07-22T09:58:43;36.10;1.00
18317;DHT22;9284;52.298;21.164;2022-07-22T10:01:34;35.70;1.00
18317;DHT22;9284;52.298;21.164;2022-07-22T10:04:05;35.40;1.00
18317;DHT22;9284;52.298;21.164;2022-07-22T10:06:37;35.40;1.00
18317;DHT22;9284;52.298;21.164;2022-07-22T10:09:11;35.80;1.00
18317;DHT22;9284;52.298;21.164;2022-07-22T10:11:44;35.70;1.00
18317;DHT22;9284;52.298;21.164;2022-07-22T10:14:18;35.80;1.00
18317;DHT22;9284;52.298;21.164;2022-07-22T10:16:52;35.40;1.00
18317;DHT22;9284;52.298;21.164;2022-07-22T10:19:21;35.40;1.00
18317;DHT22;9284;52.298;21.164;2022-07-22T10:21:50;35.20;1.00
18317;DHT22;9284;52.298;21.164;2022-07-22T10:24:19;35.30;1.00
18317;DHT22;9284;52.298;21.164;2022-07-22T10:26:58;35.40;1.00
18317;DHT22;9284;52.298;21.164;2022-07-22T10:29:30;34.80;1.00
18317;DHT22;9284;52.298;21.164;2022-07-22T10:32:23;34.80;1.00
18317;DHT22;9284;52.298;21.164;2022-07-22T10:35:22;34.10;1.00
18317;DHT22;9284;52.298;21.164;2022-07-22T10:37:59;34.20;1.00
18317;DHT22;9284;52.298;21.164;2022-07-22T10:40:30;34.50;1.00
18317;DHT22;9284;52.298;21.164;2022-07-22T10:43:05;34.80;1.00
18317;DHT22;9284;52.298;21.164;2022-07-22T10:45:37;34.90;1.00
18317;DHT22;9284;52.298;21.164;2022-07-22T10:48:07;35.10;1.00
18317;DHT22;9284;52.298;21.164;2022-07-22T10:50:41;35.30;1.00
18317;DHT22;9284;52.298;21.164;2022-07-22T10:53:11;35.50;1.00
18317;DHT22;9284;52.298;21.164;2022-07-22T10:55:59;35.20;1.00
18317;DHT22;9284;52.298;21.164;2022-07-22T10:58:57;35.30;1.00
18317;DHT22;9284;52.298;21.164;2022-07-22T11:01:28;35.60;1.00
18317;DHT22;9284;52.298;21.164;2022-07-22T11:04:11;35.70;1.00
18317;DHT22;9284;52.298;21.164;2022-07-22T11:06:45;35.90;1.00
18317;DHT22;9284;52.298;21.164;2022-07-22T11:09:15;35.70;1.00
18317;DHT22;9284;52.298;21.164;2022-07-22T11:11:47;35.60;1.00
18317;DHT22;9284;52.298;21.164;2022-07-22T11:14:24;35.50;1.00
18317;DHT22;9284;52.298;21.164;2022-07-22T11:16:55;34.90;1.00
18317;DHT22;9284;52.298;21.164;2022-07-22T11:19:25;35.30;1.00
18317;DHT22;9284;52.298;21.164;2022-07-22T11:21:55;35.50;1.00
18317;DHT22;9284;52.298;21.164;2022-07-22T11:24:24;35.90;1.00
18317;DHT22;9284;52.298;21.164;2022-07-22T11:26:54;35.80;1.00
18317;DHT22;9284;52.298;21.164;2022-07-22T11:29:34;35.60;1.00
18317;DHT22;9284;52.298;21.164;2022-07-22T11:32:04;35.60;1.00
18317;DHT22;9284;52.298;21.164;2022-07-22T11:34:36;35.80;1.00
18317;DHT22;9284;52.298;21.164;2022-07-22T11:37:04;36.00;1.00
18317;DHT22;9284;52.298;21.164;2022-07-22T11:39:32;35.60;1.00
18317;DHT22;9284;52.298;21.164;2022-07-22T11:42:01;35.50;1.00
18317;DHT22;9284;52.298;21.164;2022-07-22T11:44:34;35.80;1.00
18317;DHT22;9284;52.298;21.164;2022-07-22T11:47:04;35.90;1.00
18317;DHT22;9284;52.298;21.164;2022-07-22T11:49:34;35.70;1.00
18317;DHT22;9284;52.298;21.164;2022-07-22T11:52:04;35.60;1.00
18317;DHT22;9284;52.298;21.164;2022-07-22T11:54:34;35.50;1.00
18317;DHT22;9284;52.298;21.164;2022-07-22T11:57:03;35.20;1.00
18317;DHT22;9284;52.298;21.164;2022-07-22T11:59:33;35.10;1.00
18317;DHT22;9284;52.298;21.164;2022-07-22T12:02:02;34.90;1.00
18317;DHT22;9284;52.298;21.164;2022-07-22T12:04:31;35.00;1.00
18317;DHT22;9284;52.298;21.164;2022-07-22T12:07:01;34.90;1.00
18317;DHT22;9284;52.298;21.164;2022-07-22T12:09:31;34.50;1.00
18317;DHT22;9284;52.298;21.164;2022-07-22T12:12:00;34.30;1.00
18317;DHT22;9284;52.298;21.164;2022-07-22T12:14:30;34.10;1.00
18317;DHT22;9284;52.298;21.164;2022-07-22T12:17:02;34.10;1.00
18317;DHT22;9284;52.298;21.164;2022-07-22T12:19:33;34.30;1.00
18317;DHT22;9284;52.298;21.164;2022-07-22T12:22:03;34.20;1.00
18317;DHT22;9284;52.298;21.164;2022-07-22T12:24:34;34.40;1.00
18317;DHT22;9284;52.298;21.164;2022-07-22T12:27:04;34.20;1.00
18317;DHT22;9284;52.298;21.164;2022-07-22T12:29:42;34.10;1.00
18317;DHT22;9284;52.298;21.164;2022-07-22T12:32:18;34.10;1.00
18317;DHT22;9284;52.298;21.164;2022-07-22T12:34:56;33.90;1.00
18317;DHT22;9284;52.298;21.164;2022-07-22T12:37:26;33.70;1.00
18317;DHT22;9284;52.298;21.164;2022-07-22T12:39:59;33.50;1.00
18317;DHT22;9284;52.298;21.164;2022-07-22T12:42:30;33.20;1.00
18317;DHT22;9284;52.298;21.164;2022-07-22T12:45:01;33.00;1.00
18317;DHT22;9284;52.298;21.164;2022-07-22T12:47:43;32.70;1.00
18317;DHT22;9284;52.298;21.164;2022-07-22T12:50:17;32.70;1.00
18317;DHT22;9284;52.298;21.164;2022-07-22T12:52:45;32.80;1.00
18317;DHT22;9284;52.298;21.164;2022-07-22T12:55:37;33.10;1.00
18317;DHT22;9284;52.298;21.164;2022-07-22T12:58:06;33.50;1.00
18317;DHT22;9284;52.298;21.164;2022-07-22T13:00:37;33.90;1.00
18317;DHT22;9284;52.298;21.164;2022-07-22T13:03:07;34.10;1.00
18317;DHT22;9284;52.298;21.164;2022-07-22T13:05:35;34.00;1.00
18317;DHT22;9284;52.298;21.164;2022-07-22T13:08:04;34.20;1.00
18317;DHT22;9284;52.298;21.164;2022-07-22T13:10:36;34.20;1.00
18317;DHT22;9284;52.298;21.164;2022-07-22T13:13:05;33.80;1.00
18317;DHT22;9284;52.298;21.164;2022-07-22T13:15:34;33.70;1.00
18317;DHT22;9284;52.298;21.164;2022-07-22T13:18:03;33.90;1.00
18317;DHT22;9284;52.298;21.164;2022-07-22T13:20:33;33.70;1.00
18317;DHT22;9284;52.298;21.164;2022-07-22T13:23:01;33.70;1.00
18317;DHT22;9284;52.298;21.164;2022-07-22T13:25:30;33.70;1.00
18317;DHT22;9284;52.298;21.164;2022-07-22T13:27:59;33.40;1.00
18317;DHT22;9284;52.298;21.164;2022-07-22T13:30:27;33.40;1.00
18317;DHT22;9284;52.298;21.164;2022-07-22T13:32:55;33.60;1.00
18317;DHT22;9284;52.298;21.164;2022-07-22T13:35:24;33.70;1.00
18317;DHT22;9284;52.298;21.164;2022-07-22T13:37:53;33.60;1.00
18317;DHT22;9284;52.298;21.164;2022-07-22T13:40:21;33.50;1.00
18317;DHT22;9284;52.298;21.164;2022-07-22T13:42:50;33.50;1.00
18317;DHT22;9284;52.298;21.164;2022-07-22T13:45:18;33.60;1.00
18317;DHT22;9284;52.298;21.164;2022-07-22T13:47:47;33.50;1.00
18317;DHT22;9284;52.298;21.164;2022-07-22T13:50:15;33.60;1.00
18317;DHT22;9284;52.298;21.164;2022-07-22T13:52:43;33.60;1.00
18317;DHT22;9284;52.298;21.164;2022-07-22T13:55:14;33.60;1.00
18317;DHT22;9284;52.298;21.164;2022-07-22T13:57:43;33.50;1.00
18317;DHT22;9284;52.298;21.164;2022-07-22T14:00:14;33.50;1.00
18317;DHT22;9284;52.298;21.164;2022-07-22T14:02:43;33.30;1.00
18317;DHT22;9284;52.298;21.164;2022-07-22T14:05:12;33.20;1.00
18317;DHT22;9284;52.298;21.164;2022-07-22T14:07:41;33.10;1.00
18317;DHT22;9284;52.298;21.164;2022-07-22T14:10:10;33.20;1.00
18317;DHT22;9284;52.298;21.164;2022-07-22T14:12:40;33.30;1.00
18317;DHT22;9284;52.298;21.164;2022-07-22T14:15:10;33.30;1.00
18317;DHT22;9284;52.298;21.164;2022-07-22T14:17:39;33.20;1.00
18317;DHT22;9284;52.298;21.164;2022-07-22T14:20:08;33.20;1.00
18317;DHT22;9284;52.298;21.164;2022-07-22T14:22:37;33.10;1.00
18317;DHT22;9284;52.298;21.164;2022-07-22T14:25:05;33.20;1.00
18317;DHT22;9284;52.298;21.164;2022-07-22T14:27:34;33.20;1.00
18317;DHT22;9284;52.298;21.164;2022-07-22T14:30:05;33.20;1.00
18317;DHT22;9284;52.298;21.164;2022-07-22T14:32:33;33.10;1.00
18317;DHT22;9284;52.298;21.164;2022-07-22T14:35:01;33.00;1.00
18317;DHT22;9284;52.298;21.164;2022-07-22T14:37:33;33.00;1.00
18317;DHT22;9284;52.298;21.164;2022-07-22T14:40:01;33.10;1.00
18317;DHT22;9284;52.298;21.164;2022-07-22T14:42:30;33.00;1.00
18317;DHT22;9284;52.298;21.164;2022-07-22T14:44:58;33.00;1.00
18317;DHT22;9284;52.298;21.164;2022-07-22T14:47:28;33.20;1.00
18317;DHT22;9284;52.298;21.164;2022-07-22T14:49:56;33.20;1.00
18317;DHT22;9284;52.298;21.164;2022-07-22T14:52:24;33.10;1.00
18317;DHT22;9284;52.298;21.164;2022-07-22T14:54:54;33.00;1.00
18317;DHT22;9284;52.298;21.164;2022-07-22T14:57:22;33.00;1.00
18317;DHT22;9284;52.298;21.164;2022-07-22T14:59:52;33.00;1.00
18317;DHT22;9284;52.298;21.164;2022-07-22T15:02:20;33.00;1.00
18317;DHT22;9284;52.298;21.164;2022-07-22T15:04:50;33.00;1.00
18317;DHT22;9284;52.298;21.164;2022-07-22T15:07:18;32.80;1.00
18317;DHT22;9284;52.298;21.164;2022-07-22T15:09:53;32.80;1.00
18317;DHT22;9284;52.298;21.164;2022-07-22T15:12:21;32.70;1.00
18317;DHT22;9284;52.298;21.164;2022-07-22T15:15:10;32.70;1.00
18317;DHT22;9284;52.298;21.164;2022-07-22T15:17:38;32.50;1.00
18317;DHT22;9284;52.298;21.164;2022-07-22T15:20:09;32.30;1.00
18317;DHT22;9284;52.298;21.164;2022-07-22T15:22:37;32.20;1.00
18317;DHT22;9284;52.298;21.164;2022-07-22T15:25:06;32.20;1.00
18317;DHT22;9284;52.298;21.164;2022-07-22T15:27:34;32.20;1.00
18317;DHT22;9284;52.298;21.164;2022-07-22T15:30:06;32.40;1.00
18317;DHT22;9284;52.298;21.164;2022-07-22T15:32:34;32.40;1.00
18317;DHT22;9284;52.298;21.164;2022-07-22T15:35:03;32.50;1.00
18317;DHT22;9284;52.298;21.164;2022-07-22T15:37:33;32.50;1.00
18317;DHT22;9284;52.298;21.164;2022-07-22T15:40:06;32.50;1.00
18317;DHT22;9284;52.298;21.164;2022-07-22T15:42:34;32.40;1.00
18317;DHT22;9284;52.298;21.164;2022-07-22T15:45:03;32.20;1.00
18317;DHT22;9284;52.298;21.164;2022-07-22T15:47:31;32.00;1.00
18317;DHT22;9284;52.298;21.164;2022-07-22T15:49:59;31.80;1.00
18317;DHT22;9284;52.298;21.164;2022-07-22T15:52:28;31.70;1.00
18317;DHT22;9284;52.298;21.164;2022-07-22T15:54:58;31.60;1.00
18317;DHT22;9284;52.298;21.164;2022-07-22T15:57:26;31.60;1.00
18317;DHT22;9284;52.298;21.164;2022-07-22T16:00:12;31.70;1.00
18317;DHT22;9284;52.298;21.164;2022-07-22T16:02:40;31.80;1.00
18317;DHT22;9284;52.298;21.164;2022-07-22T16:05:09;31.80;1.00
18317;DHT22;9284;52.298;21.164;2022-07-22T16:07:37;31.70;1.00
18317;DHT22;9284;52.298;21.164;2022-07-22T16:10:08;31.70;1.00
18317;DHT22;9284;52.298;21.164;2022-07-22T16:12:37;31.60;1.00
18317;DHT22;9284;52.298;21.164;2022-07-22T16:15:06;31.60;1.00
18317;DHT22;9284;52.298;21.164;2022-07-22T16:17:34;31.60;1.00
18317;DHT22;9284;52.298;21.164;2022-07-22T16:20:03;31.60;1.00
18317;DHT22;9284;52.298;21.164;2022-07-22T16:22:36;31.60;1.00
18317;DHT22;9284;52.298;21.164;2022-07-22T16:25:07;31.50;1.00
18317;DHT22;9284;52.298;21.164;2022-07-22T16:27:35;31.50;1.00
18317;DHT22;9284;52.298;21.164;2022-07-22T16:30:04;31.40;1.00
18317;DHT22;9284;52.298;21.164;2022-07-22T16:32:32;31.20;1.00
18317;DHT22;9284;52.298;21.164;2022-07-22T16:35:01;31.20;1.00
18317;DHT22;9284;52.298;21.164;2022-07-22T16:37:29;31.10;1.00
18317;DHT22;9284;52.298;21.164;2022-07-22T16:39:57;31.00;1.00
18317;DHT22;9284;52.298;21.164;2022-07-22T16:42:33;30.90;1.00
18317;DHT22;9284;52.298;21.164;2022-07-22T16:45:02;30.70;1.00
18317;DHT22;9284;52.298;21.164;2022-07-22T16:47:31;30.70;1.00
18317;DHT22;9284;52.298;21.164;2022-07-22T16:49:59;30.60;1.00
18317;DHT22;9284;52.298;21.164;2022-07-22T16:52:28;30.60;1.00
18317;DHT22;9284;52.298;21.164;2022-07-22T16:54:56;30.70;1.00
18317;DHT22;9284;52.298;21.164;2022-07-22T16:57:24;30.50;1.00
18317;DHT22;9284;52.298;21.164;2022-07-22T16:59:55;30.60;1.00
18317;DHT22;9284;52.298;21.164;2022-07-22T17:02:23;30.50;1.00
18317;DHT22;9284;52.298;21.164;2022-07-22T17:04:52;30.40;1.00
18317;DHT22;9284;52.298;21.164;2022-07-22T17:07:20;30.40;1.00
18317;DHT22;9284;52.298;21.164;2022-07-22T17:09:48;30.30;1.00
18317;DHT22;9284;52.298;21.164;2022-07-22T17:12:16;30.20;1.00
18317;DHT22;9284;52.298;21.164;2022-07-22T17:14:44;30.10;1.00
18317;DHT22;9284;52.298;21.164;2022-07-22T17:17:14;30.10;1.00
18317;DHT22;9284;52.298;21.164;2022-07-22T17:19:42;30.00;1.00
18317;DHT22;9284;52.298;21.164;2022-07-22T17:22:10;30.00;1.00
18317;DHT22;9284;52.298;21.164;2022-07-22T17:24:38;30.00;1.00
18317;DHT22;9284;52.298;21.164;2022-07-22T17:27:06;30.00;1.00
18317;DHT22;9284;52.298;21.164;2022-07-22T17:29:34;29.90;1.00
18317;DHT22;9284;52.298;21.164;2022-07-22T17:32:03;29.90;1.00
18317;DHT22;9284;52.298;21.164;2022-07-22T17:34:33;29.80;1.00
18317;DHT22;9284;52.298;21.164;2022-07-22T17:37:02;29.70;1.00
18317;DHT22;9284;52.298;21.164;2022-07-22T17:39:30;29.70;1.00
18317;DHT22;9284;52.298;21.164;2022-07-22T17:42:00;29.70;1.00
18317;DHT22;9284;52.298;21.164;2022-07-22T17:44:28;29.60;1.00
18317;DHT22;9284;52.298;21.164;2022-07-22T17:46:56;29.50;1.00
18317;DHT22;9284;52.298;21.164;2022-07-22T17:49:25;29.40;1.00
18317;DHT22;9284;52.298;21.164;2022-07-22T17:51:54;29.20;1.00
18317;DHT22;9284;52.298;21.164;2022-07-22T17:54:22;29.30;1.00
18317;DHT22;9284;52.298;21.164;2022-07-22T17:56:51;29.20;1.00
18317;DHT22;9284;52.298;21.164;2022-07-22T17:59:19;29.10;1.00
18317;DHT22;9284;52.298;21.164;2022-07-22T18:01:47;29.10;1.00
18317;DHT22;9284;52.298;21.164;2022-07-22T18:04:15;29.00;1.00
18317;DHT22;9284;52.298;21.164;2022-07-22T18:06:43;28.90;1.00
18317;DHT22;9284;52.298;21.164;2022-07-22T18:09:13;28.80;1.00
18317;DHT22;9284;52.298;21.164;2022-07-22T18:11:41;28.70;1.00
18317;DHT22;9284;52.298;21.164;2022-07-22T18:14:10;28.60;1.00
18317;DHT22;9284;52.298;21.164;2022-07-22T18:16:38;28.60;1.00
18317;DHT22;9284;52.298;21.164;2022-07-22T18:19:06;28.50;1.00
18317;DHT22;9284;52.298;21.164;2022-07-22T18:21:34;28.40;1.00
18317;DHT22;9284;52.298;21.164;2022-07-22T18:24:05;28.20;1.00
18317;DHT22;9284;52.298;21.164;2022-07-22T18:26:40;28.20;1.00
18317;DHT22;9284;52.298;21.164;2022-07-22T18:29:08;28.00;1.00
18317;DHT22;9284;52.298;21.164;2022-07-22T18:31:36;27.90;1.00
18317;DHT22;9284;52.298;21.164;2022-07-22T18:34:05;27.80;1.00
18317;DHT22;9284;52.298;21.164;2022-07-22T18:36:33;27.70;1.00
18317;DHT22;9284;52.298;21.164;2022-07-22T18:39:01;27.50;1.00
18317;DHT22;9284;52.298;21.164;2022-07-22T18:41:30;27.30;1.00
18317;DHT22;9284;52.298;21.164;2022-07-22T18:43:59;27.20;1.00
18317;DHT22;9284;52.298;21.164;2022-07-22T18:46:27;27.00;1.00
18317;DHT22;9284;52.298;21.164;2022-07-22T18:48:56;26.80;1.00
18317;DHT22;9284;52.298;21.164;2022-07-22T18:51:25;26.70;1.00
18317;DHT22;9284;52.298;21.164;2022-07-22T18:53:53;26.50;1.00
18317;DHT22;9284;52.298;21.164;2022-07-22T18:56:21;26.40;1.00
18317;DHT22;9284;52.298;21.164;2022-07-22T18:58:49;26.30;1.00
18317;DHT22;9284;52.298;21.164;2022-07-22T19:01:19;26.10;1.00
18317;DHT22;9284;52.298;21.164;2022-07-22T19:03:47;26.00;1.00
18317;DHT22;9284;52.298;21.164;2022-07-22T19:06:16;25.90;1.00
18317;DHT22;9284;52.298;21.164;2022-07-22T19:08:44;25.80;1.00
18317;DHT22;9284;52.298;21.164;2022-07-22T19:11:12;25.70;18.30
18317;DHT22;9284;52.298;21.164;2022-07-22T19:13:41;25.60;69.20
18317;DHT22;9284;52.298;21.164;2022-07-22T19:16:09;25.60;99.90
18317;DHT22;9284;52.298;21.164;2022-07-22T19:18:39;25.60;99.90
18317;DHT22;9284;52.298;21.164;2022-07-22T19:21:07;25.60;99.90
18317;DHT22;9284;52.298;21.164;2022-07-22T19:23:35;25.50;99.90
18317;DHT22;9284;52.298;21.164;2022-07-22T19:26:03;25.50;1.00
18317;DHT22;9284;52.298;21.164;2022-07-22T19:28:31;25.50;1.00